sensor_id;sensor_type;location;lat;lon;timestamp;pressure;altitude;pressure_sealevel;temperature;humidity
13934;BME280;7039;52.168;9.866;2023-11-19T00:00:22;100005.00;;;7.21;96.52
13934;BME280;7039;52.168;9.866;2023-11-19T00:02:49;99996.03;;;7.28;96.54
13934;BME280;7039;52.168;9.866;2023-11-19T00:05:15;99988.47;;;7.24;96.87
13934;BME280;7039;52.168;9.866;2023-11-19T00:07:43;99975.50;;;7.24;96.55
13934;BME280;7039;52.168;9.866;2023-11-19T00:10:11;99974.97;;;7.36;96.37
13934;BME280;7039;52.168;9.866;2023-11-19T00:12:38;99962.09;;;7.33;96.21
13934;BME280;7039;52.168;9.866;2023-11-19T00:15:06;99980.78;;;7.60;95.64
13934;BME280;7039;52.168;9.866;2023-11-19T00:17:36;99967.38;;;7.50;95.82
13934;BME280;7039;52.168;9.866;2023-11-19T00:20:03;99960.22;;;7.56;95.16
13934;BME280;7039;52.168;9.866;2023-11-19T00:22:31;99943.81;;;7.74;94.80
13934;BME280;7039;52.168;9.866;2023-11-19T00:24:59;99948.88;;;7.77;94.38
13934;BME280;7039;52.168;9.866;2023-11-19T00:27:25;99936.72;;;7.78;94.18
13934;BME280;7039;52.168;9.866;2023-11-19T00:29:52;99921.03;;;7.62;95.10
13934;BME280;7039;52.168;9.866;2023-11-19T00:32:18;99905.81;;;7.35;96.32
13934;BME280;7039;52.168;9.866;2023-11-19T00:34:45;99895.31;;;7.38;96.59
13934;BME280;7039;52.168;9.866;2023-11-19T00:37:13;99897.69;;;7.43;97.32
13934;BME280;7039;52.168;9.866;2023-11-19T00:39:40;99881.47;;;7.57;96.46
13934;BME280;7039;52.168;9.866;2023-11-19T00:42:08;99874.38;;;7.60;96.82
13934;BME280;7039;52.168;9.866;2023-11-19T00:44:35;99882.22;;;7.78;95.59
13934;BME280;7039;52.168;9.866;2023-11-19T00:47:02;99863.66;;;7.49;98.52
13934;BME280;7039;52.168;9.866;2023-11-19T00:49:28;99850.41;;;7.55;97.95
13934;BME280;7039;52.168;9.866;2023-11-19T00:51:55;99852.00;;;7.58;97.88
13934;BME280;7039;52.168;9.866;2023-11-19T00:54:21;99849.69;;;7.51;99.51
13934;BME280;7039;52.168;9.866;2023-11-19T00:56:50;99857.25;;;7.56;98.76
13934;BME280;7039;52.168;9.866;2023-11-19T00:59:18;99864.81;;;7.61;99.72
13934;BME280;7039;52.168;9.866;2023-11-19T01:01:45;99859.47;;;7.27;100.00
13934;BME280;7039;52.168;9.866;2023-11-19T01:04:13;99859.81;;;7.20;100.00
13934;BME280;7039;52.168;9.866;2023-11-19T01:06:39;99855.84;;;7.13;100.00
13934;BME280;7039;52.168;9.866;2023-11-19T01:09:07;99838.84;;;7.24;100.00
13934;BME280;7039;52.168;9.866;2023-11-19T01:11:34;99826.47;;;7.12;100.00
13934;BME280;7039;52.168;9.866;2023-11-19T01:14:01;99808.16;;;7.15;100.00
13934;BME280;7039;52.168;9.866;2023-11-19T01:16:29;99795.75;;;7.22;100.00
13934;BME280;7039;52.168;9.866;2023-11-19T01:18:56;99793.88;;;7.25;100.00
13934;BME280;7039;52.168;9.866;2023-11-19T01:21:22;99790.66;;;7.20;100.00
13934;BME280;7039;52.168;9.866;2023-11-19T01:23:49;99773.06;;;7.27;100.00
13934;BME280;7039;52.168;9.866;2023-11-19T01:26:15;99781.00;;;7.41;100.00
13934;BME280;7039;52.168;9.866;2023-11-19T01:28:42;99785.97;;;7.46;100.00
13934;BME280;7039;52.168;9.866;2023-11-19T01:31:10;99780.63;;;7.49;100.00
13934;BME280;7039;52.168;9.866;2023-11-19T01:33:39;99781.50;;;7.49;100.00
13934;BME280;7039;52.168;9.866;2023-11-19T01:36:07;99785.44;;;7.39;100.00
13934;BME280;7039;52.168;9.866;2023-11-19T01:38:34;99780.75;;;7.28;100.00
13934;BME280;7039;52.168;9.866;2023-11-19T01:40:59;99783.88;;;7.54;100.00
13934;BME280;7039;52.168;9.866;2023-11-19T01:43:33;99780.50;;;7.69;100.00
13934;BME280;7039;52.168;9.866;2023-11-19T01:46:00;99765.84;;;7.68;100.00
13934;BME280;7039;52.168;9.866;2023-11-19T01:48:27;99766.75;;;7.67;100.00
13934;BME280;7039;52.168;9.866;2023-11-19T01:50:55;99769.53;;;7.82;100.00
13934;BME280;7039;52.168;9.866;2023-11-19T01:53:23;99769.44;;;7.66;100.00
13934;BME280;7039;52.168;9.866;2023-11-19T01:55:50;99763.47;;;7.64;100.00
13934;BME280;7039;52.168;9.866;2023-11-19T01:58:17;99770.97;;;7.70;100.00
13934;BME280;7039;52.168;9.866;2023-11-19T02:00:44;99770.81;;;7.90;100.00
13934;BME280;7039;52.168;9.866;2023-11-19T02:03:11;99756.06;;;7.73;100.00
13934;BME280;7039;52.168;9.866;2023-11-19T02:05:38;99768.53;;;7.84;100.00
13934;BME280;7039;52.168;9.866;2023-11-19T02:08:07;99764.16;;;7.85;100.00
13934;BME280;7039;52.168;9.866;2023-11-19T02:10:34;99769.88;;;7.91;100.00
13934;BME280;7039;52.168;9.866;2023-11-19T02:13:01;99784.94;;;7.85;100.00
13934;BME280;7039;52.168;9.866;2023-11-19T02:15:27;99784.03;;;7.86;100.00
13934;BME280;7039;52.168;9.866;2023-11-19T02:17:54;99781.94;;;7.92;100.00
13934;BME280;7039;52.168;9.866;2023-11-19T02:20:20;99761.03;;;7.78;100.00
13934;BME280;7039;52.168;9.866;2023-11-19T02:22:46;99752.94;;;7.84;100.00
13934;BME280;7039;52.168;9.866;2023-11-19T02:25:22;99748.41;;;7.88;100.00
13934;BME280;7039;52.168;9.866;2023-11-19T02:27:56;99747.97;;;7.97;100.00
13934;BME280;7039;52.168;9.866;2023-11-19T02:30:23;99736.31;;;7.88;100.00
13934;BME280;7039;52.168;9.866;2023-11-19T02:32:52;99728.75;;;7.84;100.00
13934;BME280;7039;52.168;9.866;2023-11-19T02:35:18;99736.53;;;7.84;100.00
13934;BME280;7039;52.168;9.866;2023-11-19T02:37:47;99743.09;;;7.91;100.00
13934;BME280;7039;52.168;9.866;2023-11-19T02:40:13;99747.34;;;8.09;100.00
13934;BME280;7039;52.168;9.866;2023-11-19T02:42:40;99725.09;;;8.04;100.00
13934;BME280;7039;52.168;9.866;2023-11-19T02:45:09;99727.56;;;8.07;100.00
13934;BME280;7039;52.168;9.866;2023-11-19T02:47:39;99727.63;;;8.05;100.00
13934;BME280;7039;52.168;9.866;2023-11-19T02:50:06;99732.88;;;8.21;100.00
13934;BME280;7039;52.168;9.866;2023-11-19T02:52:39;99724.91;;;8.24;100.00
13934;BME280;7039;52.168;9.866;2023-11-19T02:55:06;99733.84;;;8.36;100.00
13934;BME280;7039;52.168;9.866;2023-11-19T02:57:35;99717.03;;;8.43;100.00
13934;BME280;7039;52.168;9.866;2023-11-19T03:00:01;99710.16;;;8.58;100.00
13934;BME280;7039;52.168;9.866;2023-11-19T03:02:39;99706.72;;;8.57;100.00
13934;BME280;7039;52.168;9.866;2023-11-19T03:05:10;99704.44;;;8.51;100.00
13934;BME280;7039;52.168;9.866;2023-11-19T03:07:37;99710.91;;;8.44;100.00
13934;BME280;7039;52.168;9.866;2023-11-19T03:10:04;99711.16;;;8.55;100.00
13934;BME280;7039;52.168;9.866;2023-11-19T03:12:31;99706.56;;;8.61;100.00
13934;BME280;7039;52.168;9.866;2023-11-19T03:14:58;99685.59;;;8.80;100.00
13934;BME280;7039;52.168;9.866;2023-11-19T03:17:24;99663.88;;;8.65;100.00
13934;BME280;7039;52.168;9.866;2023-11-19T03:19:52;99681.16;;;8.66;100.00
13934;BME280;7039;52.168;9.866;2023-11-19T03:22:18;99669.00;;;8.50;100.00
13934;BME280;7039;52.168;9.866;2023-11-19T03:24:50;99659.09;;;8.57;100.00
13934;BME280;7039;52.168;9.866;2023-11-19T03:27:17;99661.03;;;8.53;100.00
13934;BME280;7039;52.168;9.866;2023-11-19T03:29:43;99658.16;;;8.42;100.00
13934;BME280;7039;52.168;9.866;2023-11-19T03:32:09;99662.72;;;8.54;100.00
13934;BME280;7039;52.168;9.866;2023-11-19T03:34:37;99652.91;;;8.60;100.00
13934;BME280;7039;52.168;9.866;2023-11-19T03:37:05;99676.38;;;8.74;100.00
13934;BME280;7039;52.168;9.866;2023-11-19T03:39:31;99664.88;;;8.62;100.00
13934;BME280;7039;52.168;9.866;2023-11-19T03:41:58;99671.84;;;8.77;100.00
13934;BME280;7039;52.168;9.866;2023-11-19T03:44:25;99677.81;;;8.80;100.00
13934;BME280;7039;52.168;9.866;2023-11-19T03:46:52;99686.50;;;8.78;100.00
13934;BME280;7039;52.168;9.866;2023-11-19T03:49:18;99679.31;;;8.84;100.00
13934;BME280;7039;52.168;9.866;2023-11-19T03:51:45;99669.56;;;8.87;100.00
13934;BME280;7039;52.168;9.866;2023-11-19T03:54:13;99669.16;;;8.95;100.00
13934;BME280;7039;52.168;9.866;2023-11-19T03:56:40;99656.50;;;8.89;100.00
13934;BME280;7039;52.168;9.866;2023-11-19T03:59:06;99631.88;;;8.94;100.00
13934;BME280;7039;52.168;9.866;2023-11-19T04:01:34;99646.97;;;9.04;100.00
13934;BME280;7039;52.168;9.866;2023-11-19T04:04:02;99628.75;;;9.04;100.00
13934;BME280;7039;52.168;9.866;2023-11-19T04:06:29;99637.53;;;9.17;100.00
13934;BME280;7039;52.168;9.866;2023-11-19T04:08:55;99622.88;;;9.16;100.00
13934;BME280;7039;52.168;9.866;2023-11-19T04:11:23;99618.91;;;9.25;100.00
13934;BME280;7039;52.168;9.866;2023-11-19T04:13:49;99625.13;;;9.22;100.00
13934;BME280;7039;52.168;9.866;2023-11-19T04:16:16;99611.19;;;9.37;100.00
13934;BME280;7039;52.168;9.866;2023-11-19T04:18:42;99627.28;;;9.44;100.00
13934;BME280;7039;52.168;9.866;2023-11-19T04:21:09;99622.81;;;9.46;100.00
13934;BME280;7039;52.168;9.866;2023-11-19T04:23:36;99617.91;;;9.56;100.00
13934;BME280;7039;52.168;9.866;2023-11-19T04:26:03;99615.31;;;9.56;100.00
13934;BME280;7039;52.168;9.866;2023-11-19T04:28:31;99626.03;;;9.66;100.00
13934;BME280;7039;52.168;9.866;2023-11-19T04:30:57;99629.94;;;9.73;100.00
13934;BME280;7039;52.168;9.866;2023-11-19T04:33:23;99634.31;;;9.87;100.00
13934;BME280;7039;52.168;9.866;2023-11-19T04:35:50;99635.59;;;9.94;100.00
13934;BME280;7039;52.168;9.866;2023-11-19T04:38:16;99642.03;;;9.88;100.00
13934;BME280;7039;52.168;9.866;2023-11-19T04:40:43;99623.06;;;9.86;100.00
13934;BME280;7039;52.168;9.866;2023-11-19T04:43:09;99633.19;;;9.91;100.00
13934;BME280;7039;52.168;9.866;2023-11-19T04:45:37;99638.94;;;9.96;100.00
13934;BME280;7039;52.168;9.866;2023-11-19T04:48:04;99647.16;;;10.04;100.00
13934;BME280;7039;52.168;9.866;2023-11-19T04:50:31;99642.38;;;9.96;100.00
13934;BME280;7039;52.168;9.866;2023-11-19T04:52:57;99651.50;;;10.03;100.00
13934;BME280;7039;52.168;9.866;2023-11-19T04:55:24;99641.75;;;10.07;100.00
13934;BME280;7039;52.168;9.866;2023-11-19T04:57:53;99633.06;;;9.92;100.00
13934;BME280;7039;52.168;9.866;2023-11-19T05:00:20;99640.63;;;9.82;100.00
13934;BME280;7039;52.168;9.866;2023-11-19T05:02:49;99644.44;;;10.06;100.00
13934;BME280;7039;52.168;9.866;2023-11-19T05:05:15;99639.69;;;9.98;100.00
13934;BME280;7039;52.168;9.866;2023-11-19T05:07:42;99631.97;;;9.96;100.00
13934;BME280;7039;52.168;9.866;2023-11-19T05:10:09;99630.94;;;9.99;100.00
13934;BME280;7039;52.168;9.866;2023-11-19T05:12:35;99635.78;;;9.91;100.00
13934;BME280;7039;52.168;9.866;2023-11-19T05:15:02;99629.00;;;9.88;100.00
13934;BME280;7039;52.168;9.866;2023-11-19T05:17:29;99618.59;;;9.88;100.00
13934;BME280;7039;52.168;9.866;2023-11-19T05:19:56;99623.25;;;9.97;100.00
13934;BME280;7039;52.168;9.866;2023-11-19T05:22:23;99608.06;;;10.04;100.00
13934;BME280;7039;52.168;9.866;2023-11-19T05:24:49;99607.78;;;9.94;100.00
13934;BME280;7039;52.168;9.866;2023-11-19T05:27:16;99600.63;;;9.98;100.00
13934;BME280;7039;52.168;9.866;2023-11-19T05:29:42;99604.97;;;10.12;100.00
13934;BME280;7039;52.168;9.866;2023-11-19T05:32:09;99599.22;;;10.07;100.00
13934;BME280;7039;52.168;9.866;2023-11-19T05:34:36;99603.47;;;10.36;100.00
13934;BME280;7039;52.168;9.866;2023-11-19T05:37:04;99592.50;;;10.31;100.00
13934;BME280;7039;52.168;9.866;2023-11-19T05:39:31;99593.59;;;10.27;100.00
13934;BME280;7039;52.168;9.866;2023-11-19T05:41:58;99596.28;;;10.40;100.00
13934;BME280;7039;52.168;9.866;2023-11-19T05:44:24;99600.03;;;10.36;100.00
13934;BME280;7039;52.168;9.866;2023-11-19T05:46:51;99603.19;;;10.41;100.00
13934;BME280;7039;52.168;9.866;2023-11-19T05:49:17;99604.41;;;10.35;100.00
13934;BME280;7039;52.168;9.866;2023-11-19T05:51:44;99610.88;;;10.57;100.00
13934;BME280;7039;52.168;9.866;2023-11-19T05:54:12;99622.06;;;10.72;100.00
13934;BME280;7039;52.168;9.866;2023-11-19T05:56:39;99618.19;;;10.64;100.00
13934;BME280;7039;52.168;9.866;2023-11-19T05:59:06;99617.72;;;10.72;100.00
13934;BME280;7039;52.168;9.866;2023-11-19T06:01:40;99612.97;;;10.92;100.00
13934;BME280;7039;52.168;9.866;2023-11-19T06:04:07;99617.50;;;11.02;100.00
13934;BME280;7039;52.168;9.866;2023-11-19T06:06:33;99613.44;;;11.11;100.00
13934;BME280;7039;52.168;9.866;2023-11-19T06:09:00;99611.66;;;11.12;100.00
13934;BME280;7039;52.168;9.866;2023-11-19T06:11:31;99622.13;;;11.24;100.00
13934;BME280;7039;52.168;9.866;2023-11-19T06:13:57;99630.69;;;11.39;100.00
13934;BME280;7039;52.168;9.866;2023-11-19T06:16:24;99618.91;;;11.46;100.00
13934;BME280;7039;52.168;9.866;2023-11-19T06:18:50;99608.28;;;11.49;100.00
13934;BME280;7039;52.168;9.866;2023-11-19T06:21:18;99624.66;;;11.52;100.00
13934;BME280;7039;52.168;9.866;2023-11-19T06:23:45;99630.72;;;11.65;99.89
13934;BME280;7039;52.168;9.866;2023-11-19T06:26:11;99629.38;;;11.72;98.65
13934;BME280;7039;52.168;9.866;2023-11-19T06:28:40;99636.16;;;11.87;97.98
13934;BME280;7039;52.168;9.866;2023-11-19T06:31:07;99638.47;;;11.79;97.47
13934;BME280;7039;52.168;9.866;2023-11-19T06:33:33;99636.25;;;11.99;96.46
13934;BME280;7039;52.168;9.866;2023-11-19T06:36:00;99633.25;;;11.92;96.33
13934;BME280;7039;52.168;9.866;2023-11-19T06:38:26;99639.31;;;11.93;95.60
13934;BME280;7039;52.168;9.866;2023-11-19T06:40:53;99644.84;;;12.01;94.82
13934;BME280;7039;52.168;9.866;2023-11-19T06:43:19;99644.00;;;12.00;94.33
13934;BME280;7039;52.168;9.866;2023-11-19T06:45:48;99645.16;;;11.96;95.21
13934;BME280;7039;52.168;9.866;2023-11-19T06:48:14;99653.22;;;11.93;94.51
13934;BME280;7039;52.168;9.866;2023-11-19T06:50:41;99652.50;;;12.04;93.63
13934;BME280;7039;52.168;9.866;2023-11-19T06:53:07;99655.28;;;12.01;93.74
13934;BME280;7039;52.168;9.866;2023-11-19T06:55:35;99655.94;;;12.04;93.49
13934;BME280;7039;52.168;9.866;2023-11-19T06:58:02;99657.06;;;12.00;93.33
13934;BME280;7039;52.168;9.866;2023-11-19T07:00:28;99664.50;;;12.06;93.63
13934;BME280;7039;52.168;9.866;2023-11-19T07:02:59;99664.19;;;11.98;93.46
13934;BME280;7039;52.168;9.866;2023-11-19T07:05:25;99670.47;;;12.08;92.55
13934;BME280;7039;52.168;9.866;2023-11-19T07:07:52;99667.22;;;12.18;91.88
13934;BME280;7039;52.168;9.866;2023-11-19T07:10:19;99667.53;;;12.00;92.61
13934;BME280;7039;52.168;9.866;2023-11-19T07:12:46;99674.84;;;11.95;92.61
13934;BME280;7039;52.168;9.866;2023-11-19T07:15:15;99661.38;;;11.88;92.55
13934;BME280;7039;52.168;9.866;2023-11-19T07:17:43;99674.50;;;12.12;91.52
13934;BME280;7039;52.168;9.866;2023-11-19T07:20:12;99675.47;;;12.24;91.22
13934;BME280;7039;52.168;9.866;2023-11-19T07:22:42;99677.34;;;11.97;91.95
13934;BME280;7039;52.168;9.866;2023-11-19T07:25:11;99669.13;;;11.90;91.72
13934;BME280;7039;52.168;9.866;2023-11-19T07:27:37;99686.22;;;11.94;92.13
13934;BME280;7039;52.168;9.866;2023-11-19T07:30:05;99682.88;;;11.92;91.27
13934;BME280;7039;52.168;9.866;2023-11-19T07:32:32;99687.41;;;11.90;91.40
13934;BME280;7039;52.168;9.866;2023-11-19T07:34:59;99695.34;;;11.88;91.68
13934;BME280;7039;52.168;9.866;2023-11-19T07:37:27;99701.28;;;12.03;89.73
13934;BME280;7039;52.168;9.866;2023-11-19T07:39:53;99711.09;;;12.12;88.98
13934;BME280;7039;52.168;9.866;2023-11-19T07:42:19;99699.50;;;12.17;89.63
13934;BME280;7039;52.168;9.866;2023-11-19T07:44:46;99699.84;;;11.99;89.94
13934;BME280;7039;52.168;9.866;2023-11-19T07:47:12;99696.28;;;12.13;88.71
13934;BME280;7039;52.168;9.866;2023-11-19T07:49:39;99702.75;;;12.07;88.18
13934;BME280;7039;52.168;9.866;2023-11-19T07:52:05;99702.44;;;12.12;88.43
13934;BME280;7039;52.168;9.866;2023-11-19T07:54:33;99706.41;;;12.18;88.75
13934;BME280;7039;52.168;9.866;2023-11-19T07:57:00;99704.00;;;12.15;88.72
13934;BME280;7039;52.168;9.866;2023-11-19T07:59:26;99698.47;;;12.06;88.96
13934;BME280;7039;52.168;9.866;2023-11-19T08:01:53;99699.63;;;11.89;89.57
13934;BME280;7039;52.168;9.866;2023-11-19T08:04:19;99701.94;;;12.07;88.58
13934;BME280;7039;52.168;9.866;2023-11-19T08:06:45;99705.69;;;12.03;88.73
13934;BME280;7039;52.168;9.866;2023-11-19T08:09:12;99702.34;;;12.01;88.95
13934;BME280;7039;52.168;9.866;2023-11-19T08:11:41;99703.38;;;11.98;88.21
13934;BME280;7039;52.168;9.866;2023-11-19T08:14:08;99703.91;;;12.03;87.95
13934;BME280;7039;52.168;9.866;2023-11-19T08:16:34;99700.69;;;12.00;88.13
13934;BME280;7039;52.168;9.866;2023-11-19T08:19:03;99702.56;;;11.98;87.95
13934;BME280;7039;52.168;9.866;2023-11-19T08:21:29;99695.13;;;11.91;88.00
13934;BME280;7039;52.168;9.866;2023-11-19T08:23:56;99707.38;;;12.04;87.28
13934;BME280;7039;52.168;9.866;2023-11-19T08:26:25;99704.53;;;12.07;87.42
13934;BME280;7039;52.168;9.866;2023-11-19T08:28:53;99694.41;;;12.02;86.64
13934;BME280;7039;52.168;9.866;2023-11-19T08:31:20;99715.22;;;12.04;86.18
13934;BME280;7039;52.168;9.866;2023-11-19T08:33:46;99711.56;;;12.06;85.93
13934;BME280;7039;52.168;9.866;2023-11-19T08:36:19;99729.94;;;12.05;86.35
13934;BME280;7039;52.168;9.866;2023-11-19T08:38:46;99714.59;;;12.13;85.93
13934;BME280;7039;52.168;9.866;2023-11-19T08:41:13;99725.44;;;11.94;87.70
13934;BME280;7039;52.168;9.866;2023-11-19T08:43:40;99709.09;;;11.78;87.79
13934;BME280;7039;52.168;9.866;2023-11-19T08:46:18;99718.84;;;12.01;88.03
13934;BME280;7039;52.168;9.866;2023-11-19T08:48:46;99708.19;;;11.91;86.98
13934;BME280;7039;52.168;9.866;2023-11-19T08:51:14;99708.84;;;11.95;87.01
13934;BME280;7039;52.168;9.866;2023-11-19T08:53:40;99723.25;;;12.01;86.57
13934;BME280;7039;52.168;9.866;2023-11-19T08:56:07;99735.78;;;11.96;87.31
13934;BME280;7039;52.168;9.866;2023-11-19T08:58:34;99730.06;;;11.90;87.32
13934;BME280;7039;52.168;9.866;2023-11-19T09:01:00;99725.56;;;11.93;86.77
13934;BME280;7039;52.168;9.866;2023-11-19T09:03:31;99722.94;;;12.18;86.74
13934;BME280;7039;52.168;9.866;2023-11-19T09:05:57;99737.34;;;11.98;87.56
13934;BME280;7039;52.168;9.866;2023-11-19T09:08:23;99719.06;;;11.98;87.07
13934;BME280;7039;52.168;9.866;2023-11-19T09:10:50;99722.19;;;12.03;87.10
13934;BME280;7039;52.168;9.866;2023-11-19T09:13:17;99719.88;;;11.86;88.15
13934;BME280;7039;52.168;9.866;2023-11-19T09:15:44;99726.47;;;11.79;88.73
13934;BME280;7039;52.168;9.866;2023-11-19T09:18:14;99717.75;;;11.78;88.71
13934;BME280;7039;52.168;9.866;2023-11-19T09:20:41;99721.38;;;12.03;87.27
13934;BME280;7039;52.168;9.866;2023-11-19T09:23:08;99730.97;;;11.89;87.46
13934;BME280;7039;52.168;9.866;2023-11-19T09:25:34;99731.53;;;11.95;87.86
13934;BME280;7039;52.168;9.866;2023-11-19T09:28:01;99749.66;;;11.83;87.44
13934;BME280;7039;52.168;9.866;2023-11-19T09:30:27;99742.38;;;11.88;88.89
13934;BME280;7039;52.168;9.866;2023-11-19T09:32:54;99735.00;;;11.68;89.05
13934;BME280;7039;52.168;9.866;2023-11-19T09:35:20;99748.06;;;11.68;89.38
13934;BME280;7039;52.168;9.866;2023-11-19T09:37:48;99752.91;;;11.87;89.67
13934;BME280;7039;52.168;9.866;2023-11-19T09:40:19;99749.25;;;11.89;89.60
13934;BME280;7039;52.168;9.866;2023-11-19T09:42:48;99737.84;;;11.78;90.20
13934;BME280;7039;52.168;9.866;2023-11-19T09:45:32;99745.16;;;11.73;89.51
13934;BME280;7039;52.168;9.866;2023-11-19T09:48:11;99736.44;;;11.99;88.60
13934;BME280;7039;52.168;9.866;2023-11-19T09:50:40;99737.25;;;12.12;87.26
13934;BME280;7039;52.168;9.866;2023-11-19T09:53:09;99758.91;;;12.27;86.31
13934;BME280;7039;52.168;9.866;2023-11-19T09:55:35;99744.63;;;11.80;87.22
13934;BME280;7039;52.168;9.866;2023-11-19T09:58:06;99734.84;;;12.09;85.13
13934;BME280;7039;52.168;9.866;2023-11-19T10:00:34;99737.47;;;12.09;86.52
13934;BME280;7039;52.168;9.866;2023-11-19T10:03:02;99730.41;;;11.84;87.63
13934;BME280;7039;52.168;9.866;2023-11-19T10:05:30;99756.78;;;11.94;87.91
13934;BME280;7039;52.168;9.866;2023-11-19T10:07:57;99742.50;;;12.00;87.07
13934;BME280;7039;52.168;9.866;2023-11-19T10:10:26;99740.72;;;12.13;86.97
13934;BME280;7039;52.168;9.866;2023-11-19T10:12:54;99737.34;;;12.24;85.63
13934;BME280;7039;52.168;9.866;2023-11-19T10:15:22;99737.97;;;12.15;85.60
13934;BME280;7039;52.168;9.866;2023-11-19T10:17:50;99736.94;;;12.04;86.28
13934;BME280;7039;52.168;9.866;2023-11-19T10:20:17;99744.06;;;12.02;87.60
13934;BME280;7039;52.168;9.866;2023-11-19T10:22:52;99734.31;;;11.91;87.57
13934;BME280;7039;52.168;9.866;2023-11-19T10:25:34;99741.91;;;11.82;87.94
13934;BME280;7039;52.168;9.866;2023-11-19T10:28:02;99747.78;;;11.85;88.74
13934;BME280;7039;52.168;9.866;2023-11-19T10:30:31;99747.41;;;11.64;90.25
13934;BME280;7039;52.168;9.866;2023-11-19T10:33:03;99752.34;;;11.69;91.27
13934;BME280;7039;52.168;9.866;2023-11-19T10:35:34;99732.03;;;11.47;93.06
13934;BME280;7039;52.168;9.866;2023-11-19T10:38:21;99741.31;;;11.51;93.77
13934;BME280;7039;52.168;9.866;2023-11-19T10:40:54;99740.88;;;11.44;93.39
13934;BME280;7039;52.168;9.866;2023-11-19T10:43:24;99738.63;;;11.53;93.47
13934;BME280;7039;52.168;9.866;2023-11-19T10:45:51;99729.81;;;11.41;94.40
13934;BME280;7039;52.168;9.866;2023-11-19T10:48:18;99745.25;;;11.31;95.47
13934;BME280;7039;52.168;9.866;2023-11-19T10:50:49;99731.25;;;11.32;94.42
13934;BME280;7039;52.168;9.866;2023-11-19T10:53:21;99735.09;;;11.54;93.61
13934;BME280;7039;52.168;9.866;2023-11-19T10:55:54;99743.63;;;11.56;94.53
13934;BME280;7039;52.168;9.866;2023-11-19T10:58:32;99736.41;;;11.46;94.87
13934;BME280;7039;52.168;9.866;2023-11-19T11:01:02;99729.00;;;11.40;94.81
13934;BME280;7039;52.168;9.866;2023-11-19T11:03:35;99726.75;;;11.87;93.29
13934;BME280;7039;52.168;9.866;2023-11-19T11:06:05;99740.19;;;12.08;92.00
13934;BME280;7039;52.168;9.866;2023-11-19T11:08:37;99739.97;;;12.24;89.70
13934;BME280;7039;52.168;9.866;2023-11-19T11:11:18;99738.00;;;12.27;87.95
13934;BME280;7039;52.168;9.866;2023-11-19T11:13:47;99748.22;;;12.56;86.80
13934;BME280;7039;52.168;9.866;2023-11-19T11:16:14;99751.81;;;12.79;86.00
13934;BME280;7039;52.168;9.866;2023-11-19T11:18:41;99738.25;;;12.74;86.06
13934;BME280;7039;52.168;9.866;2023-11-19T11:21:09;99740.91;;;12.85;85.89
13934;BME280;7039;52.168;9.866;2023-11-19T11:24:00;99736.19;;;12.90;84.74
13934;BME280;7039;52.168;9.866;2023-11-19T11:26:48;99747.97;;;13.33;83.21
13934;BME280;7039;52.168;9.866;2023-11-19T11:29:25;99751.47;;;13.21;81.86
13934;BME280;7039;52.168;9.866;2023-11-19T11:32:08;99741.91;;;13.32;82.70
13934;BME280;7039;52.168;9.866;2023-11-19T11:34:53;99731.66;;;13.29;81.72
13934;BME280;7039;52.168;9.866;2023-11-19T11:37:26;99739.19;;;13.34;81.90
13934;BME280;7039;52.168;9.866;2023-11-19T11:39:57;99744.97;;;13.50;80.75
13934;BME280;7039;52.168;9.866;2023-11-19T11:42:36;99741.81;;;13.34;81.43
13934;BME280;7039;52.168;9.866;2023-11-19T11:45:05;99739.81;;;13.38;81.39
13934;BME280;7039;52.168;9.866;2023-11-19T11:48:08;99735.47;;;13.61;80.42
13934;BME280;7039;52.168;9.866;2023-11-19T11:50:47;99745.31;;;13.46;79.93
13934;BME280;7039;52.168;9.866;2023-11-19T11:53:16;99726.34;;;13.18;80.42
13934;BME280;7039;52.168;9.866;2023-11-19T11:55:56;99733.38;;;13.18;80.98
13934;BME280;7039;52.168;9.866;2023-11-19T11:58:35;99714.25;;;13.04;80.13
13934;BME280;7039;52.168;9.866;2023-11-19T12:01:03;99719.75;;;13.12;79.60
13934;BME280;7039;52.168;9.866;2023-11-19T12:03:32;99698.72;;;13.14;80.48
13934;BME280;7039;52.168;9.866;2023-11-19T12:05:59;99700.41;;;13.15;79.52
13934;BME280;7039;52.168;9.866;2023-11-19T12:08:27;99698.72;;;12.90;79.70
13934;BME280;7039;52.168;9.866;2023-11-19T12:10:55;99683.28;;;12.74;79.39
13934;BME280;7039;52.168;9.866;2023-11-19T12:13:26;99683.66;;;12.57;81.48
13934;BME280;7039;52.168;9.866;2023-11-19T12:16:09;99684.56;;;12.68;81.46
13934;BME280;7039;52.168;9.866;2023-11-19T12:18:39;99691.06;;;12.63;81.32
13934;BME280;7039;52.168;9.866;2023-11-19T12:21:06;99686.78;;;12.49;81.39
13934;BME280;7039;52.168;9.866;2023-11-19T12:23:34;99686.44;;;12.66;80.58
13934;BME280;7039;52.168;9.866;2023-11-19T12:26:01;99684.97;;;12.62;81.63
13934;BME280;7039;52.168;9.866;2023-11-19T12:28:29;99689.63;;;12.59;81.38
13934;BME280;7039;52.168;9.866;2023-11-19T12:31:08;99690.66;;;12.56;81.42
13934;BME280;7039;52.168;9.866;2023-11-19T12:33:35;99693.47;;;12.53;81.93
13934;BME280;7039;52.168;9.866;2023-11-19T12:36:03;99694.88;;;12.46;81.91
13934;BME280;7039;52.168;9.866;2023-11-19T12:38:30;99694.44;;;12.52;81.91
13934;BME280;7039;52.168;9.866;2023-11-19T12:41:04;99687.41;;;12.52;81.50
13934;BME280;7039;52.168;9.866;2023-11-19T12:43:31;99689.56;;;12.35;81.52
13934;BME280;7039;52.168;9.866;2023-11-19T12:45:59;99692.97;;;12.48;81.50
13934;BME280;7039;52.168;9.866;2023-11-19T12:48:27;99713.69;;;12.51;81.57
13934;BME280;7039;52.168;9.866;2023-11-19T12:50:54;99692.25;;;12.33;81.97
13934;BME280;7039;52.168;9.866;2023-11-19T12:53:21;99694.03;;;12.32;81.08
13934;BME280;7039;52.168;9.866;2023-11-19T12:55:48;99697.47;;;12.46;80.41
13934;BME280;7039;52.168;9.866;2023-11-19T12:58:31;99700.19;;;12.44;80.26
13934;BME280;7039;52.168;9.866;2023-11-19T13:01:01;99709.53;;;12.36;81.22
13934;BME280;7039;52.168;9.866;2023-11-19T13:03:33;99706.53;;;12.29;82.93
13934;BME280;7039;52.168;9.866;2023-11-19T13:06:04;99695.56;;;12.11;83.71
13934;BME280;7039;52.168;9.866;2023-11-19T13:08:37;99711.44;;;12.21;84.13
13934;BME280;7039;52.168;9.866;2023-11-19T13:11:07;99701.59;;;12.24;83.34
13934;BME280;7039;52.168;9.866;2023-11-19T13:13:58;99707.66;;;12.25;83.62
13934;BME280;7039;52.168;9.866;2023-11-19T13:16:26;99702.13;;;12.29;83.87